createdAt,value
2023-03-01T00:00:40.834Z,-1.83
2023-03-01T00:03:25.149Z,-1.82
2023-03-01T00:05:53.222Z,-1.83
2023-03-01T00:08:41.347Z,-1.86
2023-03-01T00:11:16.698Z,-1.87
2023-03-01T00:13:56.805Z,-1.88
2023-03-01T00:16:30.298Z,-1.89
2023-03-01T00:18:59.575Z,-1.90
2023-03-01T00:21:30.429Z,-1.90
2023-03-01T00:24:00.654Z,-1.92
2023-03-01T00:26:32.086Z,-1.95
2023-03-01T00:29:19.656Z,-1.96
2023-03-01T00:32:07.582Z,-2.00
2023-03-01T00:34:56.344Z,-2.01
2023-03-01T00:37:44.362Z,-2.02
2023-03-01T00:40:17.363Z,-2.05
2023-03-01T00:42:56.400Z,-2.09
2023-03-01T00:45:23.857Z,-2.08
2023-03-01T00:48:11.605Z,-2.08
2023-03-01T00:50:53.074Z,-2.10
2023-03-01T00:53:41.336Z,-2.11
2023-03-01T00:56:29.469Z,-2.10
2023-03-01T00:58:57.617Z,-2.09
2023-03-01T01:01:45.234Z,-2.11
2023-03-01T01:04:14.514Z,-2.13
2023-03-01T01:06:46.840Z,-2.15
2023-03-01T01:09:18.823Z,-2.16
2023-03-01T01:12:06.658Z,-2.18
2023-03-01T01:14:37.711Z,-2.19
2023-03-01T01:17:08.286Z,-2.20
2023-03-01T01:19:56.264Z,-2.21
2023-03-01T01:22:43.848Z,-2.23
2023-03-01T01:25:31.479Z,-2.25
2023-03-01T01:28:19.032Z,-2.26
2023-03-01T01:31:07.147Z,-2.26
2023-03-01T01:33:45.493Z,-2.28
2023-03-01T01:36:13.442Z,-2.28
2023-03-01T01:38:44.676Z,-2.27
2023-03-01T01:41:33.538Z,-2.29
2023-03-01T01:44:20.840Z,-2.30
2023-03-01T01:46:55.130Z,-2.31
2023-03-01T01:49:37.967Z,-2.33
2023-03-01T01:52:16.308Z,-2.34
2023-03-01T01:54:47.701Z,-2.33
2023-03-01T01:57:38.840Z,-2.34
2023-03-01T02:00:20.267Z,-2.33
2023-03-01T02:03:11.207Z,-2.34
2023-03-01T02:06:04.346Z,-2.34
2023-03-01T02:08:46.655Z,-2.35
2023-03-01T02:11:23.552Z,-2.36
2023-03-01T02:13:55.414Z,-2.36
2023-03-01T02:16:27.992Z,-2.37
2023-03-01T02:19:15.493Z,-2.36
2023-03-01T02:21:57.714Z,-2.36
2023-03-01T02:24:53.417Z,-2.37
2023-03-01T02:27:49.904Z,-2.39
2023-03-01T02:30:26.724Z,-2.38
2023-03-01T02:33:06.580Z,-2.36
2023-03-01T02:35:44.451Z,-2.36
2023-03-01T02:38:12.622Z,-2.36
2023-03-01T02:41:02.118Z,-2.37
2023-03-01T02:43:35.232Z,-2.36
2023-03-01T02:46:17.491Z,-2.37
2023-03-01T02:48:51.897Z,-2.39
2023-03-01T02:51:45.322Z,-2.40
2023-03-01T02:54:19.013Z,-2.40
2023-03-01T02:56:50.590Z,-2.41
2023-03-01T02:59:21.575Z,-2.42
2023-03-01T03:01:52.569Z,-2.43
2023-03-01T03:04:28.974Z,-2.45
2023-03-01T03:07:07.438Z,-2.46
2023-03-01T03:09:54.776Z,-2.45
2023-03-01T03:12:40.815Z,-2.47
2023-03-01T03:15:13.966Z,-2.50
2023-03-01T03:17:47.197Z,-2.51
2023-03-01T03:20:29.834Z,-2.52
2023-03-01T03:23:00.562Z,-2.54
2023-03-01T03:25:31.724Z,-2.55
2023-03-01T03:28:00.137Z,-2.55
2023-03-01T03:30:29.532Z,-2.58
2023-03-01T03:33:01.550Z,-2.60
2023-03-01T03:35:31.406Z,-2.62
2023-03-01T03:38:06.907Z,-2.63
2023-03-01T03:41:03.656Z,-2.64
2023-03-01T03:43:36.345Z,-2.63
2023-03-01T03:46:15.342Z,-2.62
2023-03-01T03:49:02.742Z,-2.60
2023-03-01T03:51:50.578Z,-2.61
2023-03-01T03:54:25.267Z,-2.60
2023-03-01T03:57:01.733Z,-2.61
2023-03-01T03:59:49.006Z,-2.63
2023-03-01T04:02:35.569Z,-2.64
2023-03-01T04:05:11.513Z,-2.65
2023-03-01T04:07:37.537Z,-2.65
2023-03-01T04:10:24.884Z,-2.65
2023-03-01T04:13:15.382Z,-2.63
2023-03-01T04:16:01.430Z,-2.63
2023-03-01T04:18:40.386Z,-2.62
2023-03-01T04:21:17.856Z,-2.62
2023-03-01T04:23:45.809Z,-2.64
2023-03-01T04:26:22.510Z,-2.66
2023-03-01T04:29:10.054Z,-2.66
2023-03-01T04:31:50.355Z,-2.67
2023-03-01T04:34:32.211Z,-2.67
2023-03-01T04:37:19.531Z,-2.68
2023-03-01T04:39:48.605Z,-2.69
2023-03-01T04:42:35.897Z,-2.70
2023-03-01T04:45:17.622Z,-2.69
2023-03-01T04:47:55.032Z,-2.70
2023-03-01T04:50:42.754Z,-2.71
2023-03-01T04:53:31.106Z,-2.72
2023-03-01T04:56:20.049Z,-2.70
2023-03-01T04:59:02.060Z,-2.71
2023-03-01T05:01:49.823Z,-2.73
2023-03-01T05:04:37.283Z,-2.75
2023-03-01T05:07:26.073Z,-2.74
2023-03-01T05:10:14.204Z,-2.76
2023-03-01T05:12:47.878Z,-2.77
2023-03-01T05:15:30.644Z,-2.77
2023-03-01T05:18:18.514Z,-2.80
2023-03-01T05:21:06.617Z,-2.80
2023-03-01T05:23:38.069Z,-2.81
2023-03-01T05:26:09.462Z,-2.81
2023-03-01T05:28:41.839Z,-2.79
2023-03-01T05:31:20.258Z,-2.78
2023-03-01T05:33:55.112Z,-2.75
2023-03-01T05:36:31.160Z,-2.72
2023-03-01T05:39:19.024Z,-2.70
2023-03-01T05:41:59.144Z,-2.65
2023-03-01T05:44:31.407Z,-2.59
2023-03-01T05:47:01.079Z,-2.53
2023-03-01T05:49:48.614Z,-2.47
2023-03-01T05:52:18.012Z,-2.40
2023-03-01T05:54:45.219Z,-2.29
2023-03-01T05:57:33.350Z,-2.19
2023-03-01T06:00:14.750Z,-2.11
2023-03-01T06:03:03.449Z,-1.99
2023-03-01T06:05:50.991Z,-1.83
2023-03-01T06:08:38.960Z,-1.65
2023-03-01T06:11:26.500Z,-1.48
2023-03-01T06:14:04.516Z,-1.29
2023-03-01T06:16:52.026Z,-1.08
2023-03-01T06:19:38.679Z,-0.83
2023-03-01T06:22:26.100Z,-0.52
2023-03-01T06:25:16.058Z,-0.20
2023-03-01T06:27:54.554Z,0.09
2023-03-01T06:30:27.200Z,0.38
2023-03-01T06:33:15.206Z,0.70
2023-03-01T06:35:53.192Z,0.99
2023-03-01T06:38:41.850Z,1.38
2023-03-01T06:41:29.564Z,1.87
2023-03-01T06:44:17.235Z,2.33
2023-03-01T06:46:48.176Z,2.70
2023-03-01T06:49:35.712Z,3.19
2023-03-01T06:52:06.117Z,3.66
2023-03-01T06:54:53.656Z,4.24
2023-03-01T06:57:33.888Z,4.78
2023-03-01T07:00:15.735Z,5.31
2023-03-01T07:02:43.149Z,5.81
2023-03-01T07:05:31.080Z,6.36
2023-03-01T07:07:58.599Z,6.87
2023-03-01T07:10:39.590Z,7.49
2023-03-01T07:13:08.023Z,8.07
2023-03-01T07:15:38.090Z,8.54
2023-03-01T07:18:05.736Z,9.04
2023-03-01T07:20:33.164Z,9.58
2023-03-01T07:23:00.372Z,10.03
2023-03-01T07:25:27.828Z,10.54
2023-03-01T07:27:55.796Z,11.19
2023-03-01T07:30:23.692Z,11.84
2023-03-01T07:32:58.540Z,12.37
2023-03-01T07:35:27.329Z,12.73
2023-03-01T07:37:54.547Z,13.14
2023-03-01T07:40:22.040Z,13.68
2023-03-01T07:42:49.232Z,14.22
2023-03-01T07:45:16.418Z,14.65
2023-03-01T07:47:43.693Z,15.02
2023-03-01T07:50:14.573Z,15.41
2023-03-01T07:52:41.661Z,15.86
2023-03-01T07:55:10.571Z,16.23
2023-03-01T07:57:37.763Z,16.65
2023-03-01T08:00:05.100Z,17.14
2023-03-01T08:02:39.382Z,17.57
2023-03-01T08:05:07.181Z,17.89
2023-03-01T08:07:35.318Z,18.18
2023-03-01T08:10:02.863Z,18.35
2023-03-01T08:12:30.096Z,18.61
2023-03-01T08:14:58.054Z,18.86
2023-03-01T08:17:25.581Z,19.00
2023-03-01T08:19:52.592Z,19.16
2023-03-01T08:22:19.892Z,19.13
2023-03-01T08:24:47.570Z,19.20
2023-03-01T08:27:15.209Z,19.22
2023-03-01T08:29:42.397Z,19.08
2023-03-01T08:32:10.246Z,18.91
2023-03-01T08:34:37.910Z,19.00
2023-03-01T08:37:05.063Z,18.92
2023-03-01T08:39:32.932Z,18.60
2023-03-01T08:42:00.625Z,18.42
2023-03-01T08:44:28.091Z,18.30
2023-03-01T08:46:56.812Z,18.17
2023-03-01T08:49:25.725Z,18.01
2023-03-01T08:51:53.257Z,18.20
2023-03-01T08:54:23.440Z,18.35
2023-03-01T08:56:50.973Z,18.28
2023-03-01T08:59:19.391Z,18.19
2023-03-01T09:01:47.086Z,18.39
2023-03-01T09:04:14.879Z,18.66
2023-03-01T09:06:43.202Z,18.65
2023-03-01T09:09:18.141Z,18.45
2023-03-01T09:11:47.069Z,18.00
2023-03-01T09:14:14.962Z,17.58
2023-03-01T09:16:42.290Z,17.48
2023-03-01T09:19:09.661Z,17.34
2023-03-01T09:21:40.459Z,17.36
2023-03-01T09:24:09.413Z,17.25
2023-03-01T09:26:36.628Z,17.15
2023-03-01T09:29:04.128Z,17.15
2023-03-01T09:31:31.334Z,17.07
2023-03-01T09:33:58.828Z,16.92
2023-03-01T09:36:27.484Z,16.49
2023-03-01T09:38:55.920Z,16.07
2023-03-01T09:41:38.118Z,15.78
2023-03-01T09:44:13.265Z,15.69
2023-03-01T09:46:45.473Z,15.77
2023-03-01T09:49:19.310Z,15.63
2023-03-01T09:51:56.719Z,15.74
2023-03-01T09:54:24.345Z,15.75
2023-03-01T09:57:08.513Z,15.74
2023-03-01T09:59:48.128Z,15.85
2023-03-01T10:02:27.653Z,16.02
2023-03-01T10:04:59.870Z,16.15
2023-03-01T10:07:35.512Z,16.25
2023-03-01T10:10:05.905Z,16.44
2023-03-01T10:12:38.375Z,16.70
2023-03-01T10:15:13.803Z,16.98
2023-03-01T10:17:46.754Z,16.96
2023-03-01T10:20:25.201Z,17.08
2023-03-01T10:22:53.724Z,17.18
2023-03-01T10:25:49.660Z,17.08
2023-03-01T10:28:22.962Z,16.89
2023-03-01T10:30:50.171Z,16.81
2023-03-01T10:33:23.545Z,16.82
2023-03-01T10:35:51.241Z,16.82
2023-03-01T10:38:21.457Z,16.82
2023-03-01T10:40:58.984Z,16.73
2023-03-01T10:43:28.076Z,16.63
2023-03-01T10:45:56.200Z,16.54
2023-03-01T10:48:27.537Z,16.51
2023-03-01T10:51:09.496Z,16.50
2023-03-01T10:53:39.440Z,16.49
2023-03-01T10:56:10.748Z,16.41
2023-03-01T10:58:39.843Z,16.29
2023-03-01T11:01:09.014Z,16.27
2023-03-01T11:03:38.138Z,16.17
2023-03-01T11:06:21.729Z,15.90
2023-03-01T11:08:51.180Z,15.75
2023-03-01T11:11:34.165Z,15.47
2023-03-01T11:14:15.966Z,15.45
2023-03-01T11:17:20.789Z,15.35
2023-03-01T11:20:05.772Z,15.26
2023-03-01T11:22:37.095Z,14.77
2023-03-01T11:25:10.438Z,14.51
2023-03-01T11:27:43.226Z,14.37
2023-03-01T11:30:20.725Z,14.29
2023-03-01T11:32:56.042Z,14.29
2023-03-01T11:35:27.902Z,14.15
2023-03-01T11:38:05.711Z,14.03
2023-03-01T11:40:42.589Z,13.74
2023-03-01T11:43:21.707Z,13.52
2023-03-01T11:46:05.024Z,13.24
2023-03-01T11:48:55.799Z,13.00
2023-03-01T11:51:36.022Z,12.82
2023-03-01T11:54:16.523Z,12.83
2023-03-01T11:56:49.678Z,12.92
2023-03-01T11:59:48.047Z,12.99
2023-03-01T12:02:40.365Z,13.02
2023-03-01T12:05:43.355Z,13.17
2023-03-01T12:08:16.767Z,13.26
2023-03-01T12:10:53.972Z,13.27
2023-03-01T12:13:54.498Z,13.22
2023-03-01T12:16:39.204Z,13.10
2023-03-01T12:19:42.112Z,13.13
2023-03-01T12:22:34.205Z,13.24
2023-03-01T12:25:18.358Z,13.18
2023-03-01T12:28:00.734Z,13.14
2023-03-01T12:30:39.374Z,13.06
2023-03-01T12:33:21.011Z,12.84
2023-03-01T12:36:06.288Z,12.79
2023-03-01T12:38:48.612Z,12.81
2023-03-01T12:41:40.310Z,13.01
2023-03-01T12:44:28.646Z,13.18
2023-03-01T12:47:28.526Z,13.40
2023-03-01T12:50:22.476Z,13.51
2023-03-01T12:52:55.371Z,13.56
2023-03-01T12:55:32.119Z,13.58
2023-03-01T12:58:08.762Z,13.38
2023-03-01T13:00:43.478Z,13.14
2023-03-01T13:03:22.035Z,12.95
2023-03-01T13:06:07.500Z,12.85
2023-03-01T13:08:42.779Z,12.72
2023-03-01T13:11:18.996Z,12.66
2023-03-01T13:14:34.964Z,12.55
2023-03-01T13:17:02.564Z,12.41
2023-03-01T13:19:33.485Z,12.36
2023-03-01T13:22:32.654Z,12.39
2023-03-01T13:25:21.501Z,12.54
2023-03-01T13:27:49.780Z,12.60
2023-03-01T13:30:44.421Z,12.61
2023-03-01T13:33:47.221Z,12.66
2023-03-01T13:36:51.096Z,12.67
2023-03-01T13:39:34.773Z,12.49
2023-03-01T13:42:02.907Z,12.36
2023-03-01T13:44:34.793Z,12.19
2023-03-01T13:47:18.796Z,11.98
2023-03-01T13:49:49.387Z,11.67
2023-03-01T13:52:36.818Z,11.34
2023-03-01T13:55:17.802Z,11.07
2023-03-01T13:57:49.168Z,10.86
2023-03-01T14:00:40.035Z,10.73
2023-03-01T14:03:12.146Z,10.58
2023-03-01T14:05:40.235Z,10.40
2023-03-01T14:08:19.910Z,10.21
2023-03-01T14:10:55.464Z,10.07
2023-03-01T14:13:35.959Z,9.96
2023-03-01T14:16:17.357Z,9.91
2023-03-01T14:19:03.918Z,9.90
2023-03-01T14:21:31.607Z,10.03
2023-03-01T14:23:59.914Z,10.09
2023-03-01T14:26:27.716Z,10.11
2023-03-01T14:28:58.487Z,10.10
2023-03-01T14:31:52.679Z,10.18
2023-03-01T14:34:24.209Z,10.33
2023-03-01T14:36:51.784Z,10.42
2023-03-01T14:39:27.445Z,10.42
2023-03-01T14:41:57.382Z,10.36
2023-03-01T14:44:27.689Z,10.28
2023-03-01T14:46:58.709Z,10.17
2023-03-01T14:49:38.149Z,10.05
2023-03-01T14:52:07.505Z,9.96
2023-03-01T14:54:43.210Z,9.83
2023-03-01T14:57:18.902Z,9.73
2023-03-01T14:59:46.846Z,9.67
2023-03-01T15:02:20.405Z,9.64
2023-03-01T15:04:51.377Z,9.56
2023-03-01T15:07:20.108Z,9.49
2023-03-01T15:09:47.891Z,9.43
2023-03-01T15:12:39.028Z,9.33
2023-03-01T15:15:33.388Z,9.20
2023-03-01T15:18:03.702Z,9.06
2023-03-01T15:20:37.036Z,8.97
2023-03-01T15:23:05.370Z,8.85
2023-03-01T15:25:34.494Z,8.75
2023-03-01T15:28:03.549Z,8.65
2023-03-01T15:30:35.976Z,8.53
2023-03-01T15:33:30.934Z,8.38
2023-03-01T15:35:59.333Z,8.21
2023-03-01T15:38:39.456Z,8.03
2023-03-01T15:41:23.658Z,7.87
2023-03-01T15:43:51.997Z,7.70
2023-03-01T15:46:27.502Z,7.59
2023-03-01T15:48:57.873Z,7.46
2023-03-01T15:51:31.834Z,7.36
2023-03-01T15:54:01.562Z,7.26
2023-03-01T15:56:31.686Z,7.16
2023-03-01T15:59:08.517Z,7.07
2023-03-01T16:01:36.501Z,6.96
2023-03-01T16:04:03.812Z,6.86
2023-03-01T16:06:31.466Z,6.77
2023-03-01T16:08:59.112Z,6.68
2023-03-01T16:11:26.677Z,6.62
2023-03-01T16:13:57.250Z,6.58
2023-03-01T16:16:24.692Z,6.52
2023-03-01T16:18:54.370Z,6.47
2023-03-01T16:21:26.528Z,6.42
2023-03-01T16:23:54.937Z,6.40
2023-03-01T16:26:22.424Z,6.38
2023-03-01T16:28:50.439Z,6.35
2023-03-01T16:31:23.060Z,6.32
2023-03-01T16:33:55.401Z,6.29
2023-03-01T16:36:25.716Z,6.24
2023-03-01T16:38:53.554Z,6.21
2023-03-01T16:41:23.783Z,6.19
2023-03-01T16:43:51.506Z,6.18
2023-03-01T16:46:20.071Z,6.16
2023-03-01T16:48:48.760Z,6.12
2023-03-01T16:51:16.498Z,6.08
2023-03-01T16:53:45.656Z,6.03
2023-03-01T16:56:16.843Z,6.00
2023-03-01T16:58:44.921Z,5.97
2023-03-01T17:01:15.232Z,5.91
2023-03-01T17:03:53.243Z,5.86
2023-03-01T17:06:24.642Z,5.81
2023-03-01T17:08:52.001Z,5.74
2023-03-01T17:11:39.706Z,5.69
2023-03-01T17:14:16.600Z,5.62
2023-03-01T17:16:44.414Z,5.54
2023-03-01T17:19:11.884Z,5.45
2023-03-01T17:21:43.754Z,5.40
2023-03-01T17:24:30.812Z,5.33
2023-03-01T17:27:01.612Z,5.25
2023-03-01T17:29:28.831Z,5.18
2023-03-01T17:31:57.072Z,5.11
2023-03-01T17:34:24.990Z,5.05
2023-03-01T17:36:52.931Z,4.99
2023-03-01T17:39:25.998Z,4.94
2023-03-01T17:42:13.476Z,4.86
2023-03-01T17:44:42.328Z,4.79
2023-03-01T17:47:11.563Z,4.72
2023-03-01T17:49:38.745Z,4.68
2023-03-01T17:52:06.363Z,4.63
2023-03-01T17:54:34.456Z,4.57
2023-03-01T17:57:02.169Z,4.52
2023-03-01T17:59:31.544Z,4.48
2023-03-01T18:02:01.715Z,4.43
2023-03-01T18:04:29.307Z,4.36
2023-03-01T18:06:57.689Z,4.32
2023-03-01T18:09:30.982Z,4.29
2023-03-01T18:11:59.047Z,4.22
2023-03-01T18:14:29.930Z,4.17
2023-03-01T18:17:17.240Z,4.11
2023-03-01T18:19:47.557Z,4.04
2023-03-01T18:22:14.980Z,3.99
2023-03-01T18:24:43.196Z,3.93
2023-03-01T18:27:31.151Z,3.86
2023-03-01T18:30:02.252Z,3.79
2023-03-01T18:32:30.905Z,3.74
2023-03-01T18:34:59.299Z,3.69
2023-03-01T18:37:26.869Z,3.65
2023-03-01T18:39:56.830Z,3.60
2023-03-01T18:42:23.988Z,3.53
2023-03-01T18:44:55.171Z,3.49
2023-03-01T18:47:25.280Z,3.46
2023-03-01T18:49:52.552Z,3.43
2023-03-01T18:52:20.116Z,3.39
2023-03-01T18:54:58.725Z,3.34
2023-03-01T18:57:26.434Z,3.30
2023-03-01T18:59:56.705Z,3.28
2023-03-01T19:02:24.460Z,3.25
2023-03-01T19:04:53.897Z,3.20
2023-03-01T19:07:32.087Z,3.18
2023-03-01T19:09:59.920Z,3.15
2023-03-01T19:12:28.239Z,3.12
2023-03-01T19:14:55.652Z,3.10
2023-03-01T19:17:33.937Z,3.06
2023-03-01T19:20:08.416Z,3.05
2023-03-01T19:22:35.865Z,3.02
2023-03-01T19:25:03.172Z,3.00
2023-03-01T19:27:33.461Z,2.98
2023-03-01T19:30:01.341Z,2.96
2023-03-01T19:32:32.838Z,2.93
2023-03-01T19:35:00.325Z,2.90
2023-03-01T19:37:38.783Z,2.87
2023-03-01T19:40:13.593Z,2.86
2023-03-01T19:42:45.645Z,2.83
2023-03-01T19:45:14.664Z,2.81
2023-03-01T19:47:55.129Z,2.78
2023-03-01T19:50:25.940Z,2.75
2023-03-01T19:52:53.181Z,2.71
2023-03-01T19:55:20.499Z,2.69
2023-03-01T19:57:48.005Z,2.66
2023-03-01T20:00:17.233Z,2.64
2023-03-01T20:02:44.736Z,2.62
2023-03-01T20:05:12.562Z,2.60
2023-03-01T20:07:44.477Z,2.57
2023-03-01T20:10:15.361Z,2.55
2023-03-01T20:12:42.858Z,2.52
2023-03-01T20:15:12.078Z,2.50
2023-03-01T20:17:42.712Z,2.47
2023-03-01T20:20:11.735Z,2.45
2023-03-01T20:22:42.258Z,2.42
2023-03-01T20:25:11.670Z,2.40
2023-03-01T20:27:39.321Z,2.39
2023-03-01T20:30:07.977Z,2.36
2023-03-01T20:32:35.550Z,2.33
2023-03-01T20:35:03.244Z,2.31
2023-03-01T20:37:33.782Z,2.29
2023-03-01T20:40:16.193Z,2.27
2023-03-01T20:42:43.717Z,2.25
2023-03-01T20:45:12.595Z,2.25
2023-03-01T20:47:39.911Z,2.25
2023-03-01T20:50:10.604Z,2.27
2023-03-01T20:52:58.396Z,2.27
2023-03-01T20:55:25.885Z,2.27
2023-03-01T20:57:53.032Z,2.26
2023-03-01T21:00:21.443Z,2.24
2023-03-01T21:02:48.960Z,2.24
2023-03-01T21:05:16.223Z,2.23
2023-03-01T21:07:44.057Z,2.22
2023-03-01T21:10:31.914Z,2.20
2023-03-01T21:12:59.478Z,2.18
2023-03-01T21:15:29.446Z,2.16
2023-03-01T21:17:57.164Z,2.14
2023-03-01T21:20:24.723Z,2.11
2023-03-01T21:22:51.947Z,2.10
2023-03-01T21:25:22.296Z,2.05
2023-03-01T21:27:59.896Z,2.03
2023-03-01T21:30:28.991Z,2.03
2023-03-01T21:32:56.175Z,2.01
2023-03-01T21:35:24.231Z,1.99
2023-03-01T21:38:03.077Z,1.96
2023-03-01T21:40:30.601Z,1.93
2023-03-01T21:43:00.635Z,1.90
2023-03-01T21:45:28.350Z,1.87
2023-03-01T21:48:15.853Z,1.83
2023-03-01T21:50:43.085Z,1.79
2023-03-01T21:53:10.531Z,1.77
2023-03-01T21:55:58.556Z,1.74
2023-03-01T21:58:29.445Z,1.70
2023-03-01T22:00:57.280Z,1.67
2023-03-01T22:03:25.066Z,1.65
2023-03-01T22:06:03.385Z,1.63
2023-03-01T22:08:33.205Z,1.60
2023-03-01T22:11:03.584Z,1.58
2023-03-01T22:13:30.730Z,1.55
2023-03-01T22:16:11.048Z,1.51
2023-03-01T22:18:59.323Z,1.47
2023-03-01T22:21:26.786Z,1.43
2023-03-01T22:24:04.528Z,1.39
2023-03-01T22:26:53.711Z,1.37
2023-03-01T22:29:23.348Z,1.37
2023-03-01T22:32:02.195Z,1.37
2023-03-01T22:34:49.836Z,1.34
2023-03-01T22:37:25.105Z,1.32
2023-03-01T22:39:52.307Z,1.30
2023-03-01T22:42:19.997Z,1.29
2023-03-01T22:45:09.462Z,1.26
2023-03-01T22:47:38.795Z,1.22
2023-03-01T22:50:26.578Z,1.19
2023-03-01T22:52:53.782Z,1.17
2023-03-01T22:55:24.006Z,1.13
2023-03-01T22:57:54.423Z,1.10
2023-03-01T23:00:29.249Z,1.07
2023-03-01T23:02:56.929Z,1.04
2023-03-01T23:05:35.692Z,1.02
2023-03-01T23:08:03.561Z,0.98
2023-03-01T23:10:30.920Z,0.97
2023-03-01T23:13:07.617Z,0.94
2023-03-01T23:15:58.126Z,0.90
2023-03-01T23:18:40.088Z,0.87
2023-03-01T23:21:18.959Z,0.84
2023-03-01T23:23:48.055Z,0.81
2023-03-01T23:26:19.306Z,0.80
2023-03-01T23:28:49.880Z,0.78
2023-03-01T23:31:20.436Z,0.75
2023-03-01T23:33:58.821Z,0.72
2023-03-01T23:36:38.473Z,0.70
2023-03-01T23:39:16.164Z,0.68
2023-03-01T23:41:56.573Z,0.68
2023-03-01T23:44:24.717Z,0.65
2023-03-01T23:46:55.127Z,0.65
2023-03-01T23:49:24.980Z,0.64
2023-03-01T23:51:57.533Z,0.63
2023-03-01T23:54:26.900Z,0.62
2023-03-01T23:56:54.583Z,0.63
2023-03-01T23:59:42.359Z,0.60
